sensor_id;sensor_type;location;lat;lon;timestamp;P1;durP1;ratioP1;P2;durP2;ratioP2
5776;SDS011;2914;42.668;23.346;2023-03-03T00:00:21;4.37;;;4.00;;
5776;SDS011;2914;42.668;23.346;2023-03-03T00:03:00;6.00;;;4.90;;
5776;SDS011;2914;42.668;23.346;2023-03-03T00:05:31;6.00;;;5.60;;
5776;SDS011;2914;42.668;23.346;2023-03-03T00:08:01;5.77;;;4.70;;
5776;SDS011;2914;42.668;23.346;2023-03-03T00:10:31;5.10;;;4.70;;
5776;SDS011;2914;42.668;23.346;2023-03-03T00:13:00;4.93;;;4.57;;
5776;SDS011;2914;42.668;23.346;2023-03-03T00:15:30;7.60;;;5.17;;
5776;SDS011;2914;42.668;23.346;2023-03-03T00:17:59;8.70;;;5.73;;
5776;SDS011;2914;42.668;23.346;2023-03-03T00:20:37;6.17;;;5.57;;
5776;SDS011;2914;42.668;23.346;2023-03-03T00:23:12;5.57;;;5.27;;
5776;SDS011;2914;42.668;23.346;2023-03-03T00:25:45;5.47;;;5.00;;
5776;SDS011;2914;42.668;23.346;2023-03-03T00:28:19;5.40;;;5.00;;
5776;SDS011;2914;42.668;23.346;2023-03-03T00:30:53;5.87;;;5.23;;
5776;SDS011;2914;42.668;23.346;2023-03-03T00:33:25;7.33;;;5.60;;
5776;SDS011;2914;42.668;23.346;2023-03-03T00:36:05;5.77;;;5.27;;
5776;SDS011;2914;42.668;23.346;2023-03-03T00:38:52;6.27;;;5.77;;
5776;SDS011;2914;42.668;23.346;2023-03-03T00:41:23;6.50;;;5.90;;
5776;SDS011;2914;42.668;23.346;2023-03-03T00:43:54;5.57;;;5.17;;
5776;SDS011;2914;42.668;23.346;2023-03-03T00:46:23;7.10;;;5.70;;
5776;SDS011;2914;42.668;23.346;2023-03-03T00:48:53;6.90;;;6.07;;
5776;SDS011;2914;42.668;23.346;2023-03-03T00:51:26;6.50;;;5.77;;
5776;SDS011;2914;42.668;23.346;2023-03-03T00:53:57;6.67;;;5.87;;
5776;SDS011;2914;42.668;23.346;2023-03-03T00:56:26;8.83;;;6.47;;
5776;SDS011;2914;42.668;23.346;2023-03-03T00:58:56;6.57;;;5.93;;
5776;SDS011;2914;42.668;23.346;2023-03-03T01:01:26;7.13;;;6.43;;
5776;SDS011;2914;42.668;23.346;2023-03-03T01:03:55;6.20;;;5.60;;
5776;SDS011;2914;42.668;23.346;2023-03-03T01:06:24;5.70;;;5.20;;
5776;SDS011;2914;42.668;23.346;2023-03-03T01:09:07;6.20;;;5.60;;
5776;SDS011;2914;42.668;23.346;2023-03-03T01:11:36;6.20;;;5.80;;
5776;SDS011;2914;42.668;23.346;2023-03-03T01:14:06;5.87;;;5.20;;
5776;SDS011;2914;42.668;23.346;2023-03-03T01:16:35;6.10;;;5.50;;
5776;SDS011;2914;42.668;23.346;2023-03-03T01:19:06;7.00;;;6.30;;
5776;SDS011;2914;42.668;23.346;2023-03-03T01:21:35;10.93;;;5.33;;
5776;SDS011;2914;42.668;23.346;2023-03-03T01:24:05;10.30;;;6.10;;
5776;SDS011;2914;42.668;23.346;2023-03-03T01:26:34;7.47;;;6.70;;
5776;SDS011;2914;42.668;23.346;2023-03-03T01:29:03;6.63;;;6.00;;
5776;SDS011;2914;42.668;23.346;2023-03-03T01:31:32;5.60;;;5.20;;
5776;SDS011;2914;42.668;23.346;2023-03-03T01:34:01;7.40;;;6.40;;
5776;SDS011;2914;42.668;23.346;2023-03-03T01:36:32;9.03;;;6.13;;
5776;SDS011;2914;42.668;23.346;2023-03-03T01:39:02;6.83;;;6.07;;
5776;SDS011;2914;42.668;23.346;2023-03-03T01:41:32;7.30;;;6.43;;
5776;SDS011;2914;42.668;23.346;2023-03-03T01:44:01;7.13;;;6.43;;
5776;SDS011;2914;42.668;23.346;2023-03-03T01:46:37;7.90;;;6.73;;
5776;SDS011;2914;42.668;23.346;2023-03-03T01:49:25;6.00;;;5.40;;
5776;SDS011;2914;42.668;23.346;2023-03-03T01:51:57;6.30;;;5.30;;
5776;SDS011;2914;42.668;23.346;2023-03-03T01:54:29;8.00;;;6.73;;
5776;SDS011;2914;42.668;23.346;2023-03-03T01:57:04;9.33;;;6.07;;
5776;SDS011;2914;42.668;23.346;2023-03-03T01:59:34;6.80;;;6.20;;
5776;SDS011;2914;42.668;23.346;2023-03-03T02:02:06;7.70;;;5.90;;
5776;SDS011;2914;42.668;23.346;2023-03-03T02:04:35;6.90;;;6.17;;
5776;SDS011;2914;42.668;23.346;2023-03-03T02:07:06;7.63;;;6.23;;
5776;SDS011;2914;42.668;23.346;2023-03-03T02:09:40;8.43;;;6.17;;
5776;SDS011;2914;42.668;23.346;2023-03-03T02:12:15;6.60;;;6.00;;
5776;SDS011;2914;42.668;23.346;2023-03-03T02:14:47;7.87;;;6.80;;
5776;SDS011;2914;42.668;23.346;2023-03-03T02:17:16;7.43;;;6.10;;
5776;SDS011;2914;42.668;23.346;2023-03-03T02:19:48;6.73;;;6.10;;
5776;SDS011;2914;42.668;23.346;2023-03-03T02:22:21;5.83;;;5.20;;
5776;SDS011;2914;42.668;23.346;2023-03-03T02:24:54;7.63;;;5.43;;
5776;SDS011;2914;42.668;23.346;2023-03-03T02:27:38;8.63;;;7.73;;
5776;SDS011;2914;42.668;23.346;2023-03-03T02:30:08;6.40;;;5.83;;
5776;SDS011;2914;42.668;23.346;2023-03-03T02:32:41;7.03;;;6.33;;
5776;SDS011;2914;42.668;23.346;2023-03-03T02:35:26;7.10;;;6.50;;
5776;SDS011;2914;42.668;23.346;2023-03-03T02:37:59;5.80;;;5.40;;
5776;SDS011;2914;42.668;23.346;2023-03-03T02:40:32;7.47;;;6.27;;
5776;SDS011;2914;42.668;23.346;2023-03-03T02:43:03;6.47;;;5.70;;
5776;SDS011;2914;42.668;23.346;2023-03-03T02:45:33;7.47;;;5.83;;
5776;SDS011;2914;42.668;23.346;2023-03-03T02:48:04;6.30;;;5.80;;
5776;SDS011;2914;42.668;23.346;2023-03-03T02:50:33;7.30;;;6.33;;
5776;SDS011;2914;42.668;23.346;2023-03-03T02:53:02;7.50;;;6.57;;
5776;SDS011;2914;42.668;23.346;2023-03-03T02:55:32;8.70;;;6.73;;
5776;SDS011;2914;42.668;23.346;2023-03-03T02:58:01;9.13;;;6.73;;
5776;SDS011;2914;42.668;23.346;2023-03-03T03:00:30;8.90;;;6.90;;
5776;SDS011;2914;42.668;23.346;2023-03-03T03:02:59;9.00;;;6.73;;
5776;SDS011;2914;42.668;23.346;2023-03-03T03:05:28;9.07;;;7.37;;
5776;SDS011;2914;42.668;23.346;2023-03-03T03:07:57;7.87;;;7.07;;
5776;SDS011;2914;42.668;23.346;2023-03-03T03:10:26;9.47;;;7.50;;
5776;SDS011;2914;42.668;23.346;2023-03-03T03:12:55;8.50;;;6.80;;
5776;SDS011;2914;42.668;23.346;2023-03-03T03:15:24;9.47;;;7.73;;
5776;SDS011;2914;42.668;23.346;2023-03-03T03:17:53;9.57;;;7.57;;
5776;SDS011;2914;42.668;23.346;2023-03-03T03:20:22;11.10;;;7.37;;
5776;SDS011;2914;42.668;23.346;2023-03-03T03:22:51;6.90;;;6.13;;
5776;SDS011;2914;42.668;23.346;2023-03-03T03:25:20;9.27;;;6.90;;
5776;SDS011;2914;42.668;23.346;2023-03-03T03:27:49;10.43;;;7.30;;
5776;SDS011;2914;42.668;23.346;2023-03-03T03:30:19;10.40;;;7.80;;
5776;SDS011;2914;42.668;23.346;2023-03-03T03:32:48;13.57;;;8.63;;
5776;SDS011;2914;42.668;23.346;2023-03-03T03:35:17;9.80;;;6.60;;
5776;SDS011;2914;42.668;23.346;2023-03-03T03:37:46;8.90;;;7.70;;
5776;SDS011;2914;42.668;23.346;2023-03-03T03:40:15;14.67;;;8.17;;
5776;SDS011;2914;42.668;23.346;2023-03-03T03:42:45;12.23;;;8.53;;
5776;SDS011;2914;42.668;23.346;2023-03-03T03:45:14;8.47;;;7.47;;
5776;SDS011;2914;42.668;23.346;2023-03-03T03:47:43;12.30;;;8.57;;
5776;SDS011;2914;42.668;23.346;2023-03-03T03:50:12;10.70;;;7.97;;
5776;SDS011;2914;42.668;23.346;2023-03-03T03:52:41;12.30;;;9.17;;
5776;SDS011;2914;42.668;23.346;2023-03-03T03:55:11;11.33;;;8.93;;
5776;SDS011;2914;42.668;23.346;2023-03-03T03:57:40;14.90;;;9.27;;
5776;SDS011;2914;42.668;23.346;2023-03-03T04:00:11;12.87;;;9.90;;
5776;SDS011;2914;42.668;23.346;2023-03-03T04:02:40;14.57;;;9.17;;
5776;SDS011;2914;42.668;23.346;2023-03-03T04:05:10;14.03;;;9.23;;
5776;SDS011;2914;42.668;23.346;2023-03-03T04:07:39;14.20;;;9.63;;
5776;SDS011;2914;42.668;23.346;2023-03-03T04:10:16;13.40;;;9.57;;
5776;SDS011;2914;42.668;23.346;2023-03-03T04:12:45;12.90;;;8.80;;
5776;SDS011;2914;42.668;23.346;2023-03-03T04:15:15;12.30;;;9.43;;
5776;SDS011;2914;42.668;23.346;2023-03-03T04:17:44;10.73;;;8.27;;
5776;SDS011;2914;42.668;23.346;2023-03-03T04:20:15;13.90;;;9.87;;
5776;SDS011;2914;42.668;23.346;2023-03-03T04:22:45;14.03;;;9.87;;
5776;SDS011;2914;42.668;23.346;2023-03-03T04:25:14;15.97;;;9.90;;
5776;SDS011;2914;42.668;23.346;2023-03-03T04:27:44;12.27;;;9.70;;
5776;SDS011;2914;42.668;23.346;2023-03-03T04:30:13;12.10;;;9.63;;
5776;SDS011;2914;42.668;23.346;2023-03-03T04:32:43;15.17;;;10.30;;
5776;SDS011;2914;42.668;23.346;2023-03-03T04:35:12;15.80;;;9.63;;
5776;SDS011;2914;42.668;23.346;2023-03-03T04:37:41;15.53;;;10.33;;
5776;SDS011;2914;42.668;23.346;2023-03-03T04:40:11;15.97;;;9.63;;
5776;SDS011;2914;42.668;23.346;2023-03-03T04:42:41;15.60;;;11.17;;
5776;SDS011;2914;42.668;23.346;2023-03-03T04:45:10;13.73;;;10.03;;
5776;SDS011;2914;42.668;23.346;2023-03-03T04:47:40;15.20;;;9.97;;
5776;SDS011;2914;42.668;23.346;2023-03-03T04:50:10;12.77;;;9.50;;
5776;SDS011;2914;42.668;23.346;2023-03-03T04:52:39;14.53;;;10.87;;
5776;SDS011;2914;42.668;23.346;2023-03-03T04:55:09;17.90;;;9.63;;
5776;SDS011;2914;42.668;23.346;2023-03-03T04:57:39;16.23;;;10.63;;
5776;SDS011;2914;42.668;23.346;2023-03-03T05:00:10;14.20;;;9.90;;
5776;SDS011;2914;42.668;23.346;2023-03-03T05:02:41;17.20;;;9.70;;
5776;SDS011;2914;42.668;23.346;2023-03-03T05:05:10;18.97;;;11.27;;
5776;SDS011;2914;42.668;23.346;2023-03-03T05:07:39;14.57;;;9.70;;
5776;SDS011;2914;42.668;23.346;2023-03-03T05:10:11;22.17;;;10.33;;
5776;SDS011;2914;42.668;23.346;2023-03-03T05:12:40;17.03;;;10.43;;
5776;SDS011;2914;42.668;23.346;2023-03-03T05:15:10;17.30;;;10.20;;
5776;SDS011;2914;42.668;23.346;2023-03-03T05:17:39;16.17;;;10.40;;
5776;SDS011;2914;42.668;23.346;2023-03-03T05:20:10;17.07;;;9.97;;
5776;SDS011;2914;42.668;23.346;2023-03-03T05:22:48;15.53;;;10.30;;
5776;SDS011;2914;42.668;23.346;2023-03-03T05:25:17;14.10;;;10.00;;
5776;SDS011;2914;42.668;23.346;2023-03-03T05:27:47;18.60;;;10.10;;
5776;SDS011;2914;42.668;23.346;2023-03-03T05:30:16;13.53;;;9.60;;
5776;SDS011;2914;42.668;23.346;2023-03-03T05:33:00;12.47;;;9.47;;
5776;SDS011;2914;42.668;23.346;2023-03-03T05:35:29;21.90;;;12.00;;
5776;SDS011;2914;42.668;23.346;2023-03-03T05:37:58;18.53;;;12.40;;
5776;SDS011;2914;42.668;23.346;2023-03-03T05:40:28;18.57;;;11.07;;
5776;SDS011;2914;42.668;23.346;2023-03-03T05:42:57;17.77;;;13.00;;
5776;SDS011;2914;42.668;23.346;2023-03-03T05:45:26;18.30;;;10.80;;
5776;SDS011;2914;42.668;23.346;2023-03-03T05:47:56;17.40;;;11.00;;
5776;SDS011;2914;42.668;23.346;2023-03-03T05:50:25;17.17;;;11.10;;
5776;SDS011;2914;42.668;23.346;2023-03-03T05:52:54;19.00;;;11.30;;
5776;SDS011;2914;42.668;23.346;2023-03-03T05:55:23;19.90;;;11.10;;
5776;SDS011;2914;42.668;23.346;2023-03-03T05:57:52;19.03;;;12.57;;
5776;SDS011;2914;42.668;23.346;2023-03-03T06:00:22;34.33;;;12.60;;
5776;SDS011;2914;42.668;23.346;2023-03-03T06:02:51;19.93;;;12.77;;
5776;SDS011;2914;42.668;23.346;2023-03-03T06:05:20;21.33;;;13.47;;
5776;SDS011;2914;42.668;23.346;2023-03-03T06:07:49;21.53;;;13.23;;
5776;SDS011;2914;42.668;23.346;2023-03-03T06:10:18;17.07;;;12.50;;
5776;SDS011;2914;42.668;23.346;2023-03-03T06:12:47;23.20;;;13.13;;
5776;SDS011;2914;42.668;23.346;2023-03-03T06:15:17;26.13;;;13.63;;
5776;SDS011;2914;42.668;23.346;2023-03-03T06:18:04;20.53;;;12.10;;
5776;SDS011;2914;42.668;23.346;2023-03-03T06:20:33;21.97;;;11.30;;
5776;SDS011;2914;42.668;23.346;2023-03-03T06:23:04;14.70;;;10.80;;
5776;SDS011;2914;42.668;23.346;2023-03-03T06:25:33;13.87;;;10.90;;
5776;SDS011;2914;42.668;23.346;2023-03-03T06:28:02;22.27;;;12.50;;
5776;SDS011;2914;42.668;23.346;2023-03-03T06:30:31;16.87;;;11.87;;
5776;SDS011;2914;42.668;23.346;2023-03-03T06:33:00;17.43;;;11.83;;
5776;SDS011;2914;42.668;23.346;2023-03-03T06:35:29;17.03;;;11.73;;
5776;SDS011;2914;42.668;23.346;2023-03-03T06:38:13;13.13;;;9.00;;
5776;SDS011;2914;42.668;23.346;2023-03-03T06:40:42;27.03;;;13.50;;
5776;SDS011;2914;42.668;23.346;2023-03-03T06:43:12;19.97;;;12.60;;
5776;SDS011;2914;42.668;23.346;2023-03-03T06:45:50;25.40;;;13.57;;
5776;SDS011;2914;42.668;23.346;2023-03-03T06:48:19;19.67;;;12.00;;
5776;SDS011;2914;42.668;23.346;2023-03-03T06:50:48;18.10;;;12.17;;
5776;SDS011;2914;42.668;23.346;2023-03-03T06:53:17;14.73;;;11.30;;
5776;SDS011;2914;42.668;23.346;2023-03-03T06:55:47;16.03;;;9.83;;
5776;SDS011;2914;42.668;23.346;2023-03-03T06:58:17;18.80;;;12.07;;
5776;SDS011;2914;42.668;23.346;2023-03-03T07:00:48;23.30;;;12.40;;
5776;SDS011;2914;42.668;23.346;2023-03-03T07:03:21;20.50;;;11.33;;
5776;SDS011;2914;42.668;23.346;2023-03-03T07:05:54;25.80;;;11.80;;
5776;SDS011;2914;42.668;23.346;2023-03-03T07:08:24;17.00;;;11.00;;
5776;SDS011;2914;42.668;23.346;2023-03-03T07:10:55;14.63;;;11.00;;
5776;SDS011;2914;42.668;23.346;2023-03-03T07:13:26;17.77;;;10.60;;
5776;SDS011;2914;42.668;23.346;2023-03-03T07:15:56;18.90;;;10.73;;
5776;SDS011;2914;42.668;23.346;2023-03-03T07:18:32;17.63;;;10.20;;
5776;SDS011;2914;42.668;23.346;2023-03-03T07:21:16;15.07;;;10.30;;
5776;SDS011;2914;42.668;23.346;2023-03-03T07:23:48;16.57;;;11.17;;
5776;SDS011;2914;42.668;23.346;2023-03-03T07:26:19;20.40;;;10.63;;
5776;SDS011;2914;42.668;23.346;2023-03-03T07:28:52;13.57;;;10.20;;
5776;SDS011;2914;42.668;23.346;2023-03-03T07:31:26;17.70;;;9.87;;
5776;SDS011;2914;42.668;23.346;2023-03-03T07:33:58;14.20;;;11.20;;
5776;SDS011;2914;42.668;23.346;2023-03-03T07:36:29;11.90;;;9.10;;
5776;SDS011;2914;42.668;23.346;2023-03-03T07:39:01;11.53;;;8.63;;
5776;SDS011;2914;42.668;23.346;2023-03-03T07:41:32;14.07;;;9.10;;
5776;SDS011;2914;42.668;23.346;2023-03-03T07:44:04;13.43;;;9.30;;
5776;SDS011;2914;42.668;23.346;2023-03-03T07:46:39;17.80;;;11.03;;
5776;SDS011;2914;42.668;23.346;2023-03-03T07:49:13;15.37;;;10.60;;
5776;SDS011;2914;42.668;23.346;2023-03-03T07:52:00;13.20;;;9.77;;
5776;SDS011;2914;42.668;23.346;2023-03-03T07:54:33;17.87;;;11.70;;
5776;SDS011;2914;42.668;23.346;2023-03-03T07:57:20;15.03;;;10.30;;
5776;SDS011;2914;42.668;23.346;2023-03-03T07:59:51;17.33;;;12.20;;
5776;SDS011;2914;42.668;23.346;2023-03-03T08:02:31;14.23;;;10.00;;
5776;SDS011;2914;42.668;23.346;2023-03-03T08:05:17;13.33;;;9.57;;
5776;SDS011;2914;42.668;23.346;2023-03-03T08:08:21;12.00;;;10.23;;
5776;SDS011;2914;42.668;23.346;2023-03-03T08:10:58;12.60;;;9.70;;
5776;SDS011;2914;42.668;23.346;2023-03-03T08:13:37;16.07;;;9.77;;
5776;SDS011;2914;42.668;23.346;2023-03-03T08:16:23;15.73;;;10.80;;
5776;SDS011;2914;42.668;23.346;2023-03-03T08:19:01;15.20;;;10.03;;
5776;SDS011;2914;42.668;23.346;2023-03-03T08:21:33;15.30;;;10.27;;
5776;SDS011;2914;42.668;23.346;2023-03-03T08:24:03;23.90;;;10.23;;
5776;SDS011;2914;42.668;23.346;2023-03-03T08:26:33;11.63;;;9.73;;
5776;SDS011;2914;42.668;23.346;2023-03-03T08:29:02;13.37;;;9.73;;
5776;SDS011;2914;42.668;23.346;2023-03-03T08:31:31;15.63;;;10.53;;
5776;SDS011;2914;42.668;23.346;2023-03-03T08:34:00;17.40;;;11.10;;
5776;SDS011;2914;42.668;23.346;2023-03-03T08:36:29;16.37;;;10.27;;
5776;SDS011;2914;42.668;23.346;2023-03-03T08:38:58;15.37;;;10.57;;
5776;SDS011;2914;42.668;23.346;2023-03-03T08:41:28;18.00;;;11.83;;
5776;SDS011;2914;42.668;23.346;2023-03-03T08:43:57;18.30;;;11.13;;
5776;SDS011;2914;42.668;23.346;2023-03-03T08:46:26;17.10;;;11.00;;
5776;SDS011;2914;42.668;23.346;2023-03-03T08:48:55;22.10;;;13.33;;
5776;SDS011;2914;42.668;23.346;2023-03-03T08:51:24;17.30;;;11.53;;
5776;SDS011;2914;42.668;23.346;2023-03-03T08:53:54;25.27;;;11.30;;
5776;SDS011;2914;42.668;23.346;2023-03-03T08:56:23;18.47;;;12.00;;
5776;SDS011;2914;42.668;23.346;2023-03-03T08:58:52;19.77;;;13.10;;
5776;SDS011;2914;42.668;23.346;2023-03-03T09:01:21;22.93;;;13.43;;
5776;SDS011;2914;42.668;23.346;2023-03-03T09:03:50;18.77;;;12.40;;
5776;SDS011;2914;42.668;23.346;2023-03-03T09:06:20;16.20;;;11.40;;
5776;SDS011;2914;42.668;23.346;2023-03-03T09:08:49;25.40;;;13.60;;
5776;SDS011;2914;42.668;23.346;2023-03-03T09:11:20;21.67;;;14.47;;
5776;SDS011;2914;42.668;23.346;2023-03-03T09:14:00;17.90;;;11.30;;
5776;SDS011;2914;42.668;23.346;2023-03-03T09:16:33;19.67;;;11.83;;
5776;SDS011;2914;42.668;23.346;2023-03-03T09:19:14;17.20;;;11.60;;
5776;SDS011;2914;42.668;23.346;2023-03-03T09:21:55;22.87;;;13.30;;
5776;SDS011;2914;42.668;23.346;2023-03-03T09:24:26;18.73;;;11.83;;
5776;SDS011;2914;42.668;23.346;2023-03-03T09:26:57;19.50;;;11.43;;
5776;SDS011;2914;42.668;23.346;2023-03-03T09:29:28;15.23;;;10.03;;
5776;SDS011;2914;42.668;23.346;2023-03-03T09:31:59;12.67;;;9.27;;
5776;SDS011;2914;42.668;23.346;2023-03-03T09:34:36;19.33;;;11.03;;
5776;SDS011;2914;42.668;23.346;2023-03-03T09:37:19;10.93;;;8.50;;
5776;SDS011;2914;42.668;23.346;2023-03-03T09:39:49;15.20;;;9.20;;
5776;SDS011;2914;42.668;23.346;2023-03-03T09:51:17;15.10;;;10.43;;
5776;SDS011;2914;42.668;23.346;2023-03-03T09:54:04;13.07;;;9.73;;
5776;SDS011;2914;42.668;23.346;2023-03-03T09:56:48;14.53;;;9.90;;
5776;SDS011;2914;42.668;23.346;2023-03-03T09:59:23;14.43;;;10.97;;
5776;SDS011;2914;42.668;23.346;2023-03-03T10:02:18;17.50;;;10.23;;
5776;SDS011;2914;42.668;23.346;2023-03-03T10:05:09;15.40;;;11.17;;
5776;SDS011;2914;42.668;23.346;2023-03-03T10:07:43;19.60;;;10.47;;
5776;SDS011;2914;42.668;23.346;2023-03-03T10:10:38;17.67;;;11.50;;
5776;SDS011;2914;42.668;23.346;2023-03-03T10:13:18;14.27;;;10.27;;
5776;SDS011;2914;42.668;23.346;2023-03-03T10:16:16;13.67;;;9.90;;
5776;SDS011;2914;42.668;23.346;2023-03-03T10:18:52;15.17;;;10.00;;
5776;SDS011;2914;42.668;23.346;2023-03-03T10:21:26;13.10;;;10.00;;
5776;SDS011;2914;42.668;23.346;2023-03-03T10:24:00;15.50;;;11.13;;
5776;SDS011;2914;42.668;23.346;2023-03-03T10:29:42;14.93;;;9.93;;
5776;SDS011;2914;42.668;23.346;2023-03-03T10:35:23;17.93;;;9.27;;
5776;SDS011;2914;42.668;23.346;2023-03-03T10:38:43;15.67;;;11.47;;
5776;SDS011;2914;42.668;23.346;2023-03-03T10:41:26;15.80;;;9.50;;
5776;SDS011;2914;42.668;23.346;2023-03-03T10:44:07;17.03;;;10.97;;
5776;SDS011;2914;42.668;23.346;2023-03-03T10:46:54;12.53;;;9.57;;
5776;SDS011;2914;42.668;23.346;2023-03-03T10:49:35;11.97;;;9.07;;
5776;SDS011;2914;42.668;23.346;2023-03-03T10:52:29;12.37;;;8.17;;
5776;SDS011;2914;42.668;23.346;2023-03-03T10:55:05;13.67;;;10.63;;
5776;SDS011;2914;42.668;23.346;2023-03-03T10:57:44;15.10;;;10.70;;
5776;SDS011;2914;42.668;23.346;2023-03-03T11:00:23;13.70;;;10.87;;
5776;SDS011;2914;42.668;23.346;2023-03-03T11:06:32;12.87;;;10.30;;
5776;SDS011;2914;42.668;23.346;2023-03-03T11:09:07;11.67;;;10.00;;
5776;SDS011;2914;42.668;23.346;2023-03-03T11:11:41;14.87;;;10.60;;
5776;SDS011;2914;42.668;23.346;2023-03-03T11:14:28;11.57;;;10.00;;
5776;SDS011;2914;42.668;23.346;2023-03-03T11:16:59;12.70;;;10.63;;
5776;SDS011;2914;42.668;23.346;2023-03-03T11:19:51;21.83;;;10.27;;
5776;SDS011;2914;42.668;23.346;2023-03-03T11:22:40;14.43;;;10.30;;
5776;SDS011;2914;42.668;23.346;2023-03-03T11:25:15;14.23;;;11.00;;
5776;SDS011;2914;42.668;23.346;2023-03-03T11:28:03;15.03;;;11.13;;
5776;SDS011;2914;42.668;23.346;2023-03-03T11:33:37;15.43;;;11.30;;
5776;SDS011;2914;42.668;23.346;2023-03-03T11:36:11;17.27;;;12.90;;
5776;SDS011;2914;42.668;23.346;2023-03-03T11:38:52;14.90;;;11.80;;
5776;SDS011;2914;42.668;23.346;2023-03-03T11:41:33;16.80;;;12.60;;
5776;SDS011;2914;42.668;23.346;2023-03-03T11:44:15;17.50;;;13.20;;
5776;SDS011;2914;42.668;23.346;2023-03-03T11:46:47;18.53;;;12.90;;
5776;SDS011;2914;42.668;23.346;2023-03-03T11:49:20;18.47;;;13.23;;
5776;SDS011;2914;42.668;23.346;2023-03-03T11:51:57;29.93;;;15.03;;
5776;SDS011;2914;42.668;23.346;2023-03-03T11:54:31;20.77;;;14.60;;
5776;SDS011;2914;42.668;23.346;2023-03-03T11:57:09;21.90;;;15.13;;
5776;SDS011;2914;42.668;23.346;2023-03-03T12:03:06;26.60;;;17.03;;
5776;SDS011;2914;42.668;23.346;2023-03-03T12:05:44;23.33;;;16.80;;
5776;SDS011;2914;42.668;23.346;2023-03-03T12:11:48;28.77;;;16.60;;
5776;SDS011;2914;42.668;23.346;2023-03-03T12:14:34;28.07;;;19.13;;
5776;SDS011;2914;42.668;23.346;2023-03-03T12:17:14;27.47;;;18.80;;
5776;SDS011;2914;42.668;23.346;2023-03-03T12:19:54;25.47;;;18.90;;
5776;SDS011;2914;42.668;23.346;2023-03-03T12:22:28;22.77;;;17.37;;
5776;SDS011;2914;42.668;23.346;2023-03-03T12:28:08;29.13;;;17.90;;
5776;SDS011;2914;42.668;23.346;2023-03-03T12:30:43;26.30;;;18.17;;
5776;SDS011;2914;42.668;23.346;2023-03-03T12:33:34;21.13;;;12.27;;
5776;SDS011;2914;42.668;23.346;2023-03-03T12:36:11;30.80;;;15.70;;
5776;SDS011;2914;42.668;23.346;2023-03-03T12:38:59;44.33;;;18.30;;
5776;SDS011;2914;42.668;23.346;2023-03-03T12:41:31;23.20;;;17.63;;
5776;SDS011;2914;42.668;23.346;2023-03-03T12:44:17;25.43;;;16.70;;
5776;SDS011;2914;42.668;23.346;2023-03-03T12:46:52;26.73;;;17.53;;
5776;SDS011;2914;42.668;23.346;2023-03-03T12:49:25;21.83;;;15.77;;
5776;SDS011;2914;42.668;23.346;2023-03-03T12:52:01;24.20;;;16.60;;
5776;SDS011;2914;42.668;23.346;2023-03-03T12:57:15;21.00;;;14.93;;
5776;SDS011;2914;42.668;23.346;2023-03-03T12:59:51;21.70;;;15.83;;
5776;SDS011;2914;42.668;23.346;2023-03-03T13:02:37;23.00;;;15.43;;
5776;SDS011;2914;42.668;23.346;2023-03-03T13:05:13;19.97;;;13.70;;
5776;SDS011;2914;42.668;23.346;2023-03-03T13:07:49;26.73;;;14.77;;
5776;SDS011;2914;42.668;23.346;2023-03-03T13:10:26;22.83;;;13.40;;
5776;SDS011;2914;42.668;23.346;2023-03-03T13:13:12;16.53;;;12.80;;
5776;SDS011;2914;42.668;23.346;2023-03-03T13:15:46;18.10;;;11.90;;
5776;SDS011;2914;42.668;23.346;2023-03-03T13:18:22;20.10;;;11.13;;
5776;SDS011;2914;42.668;23.346;2023-03-03T13:20:56;13.10;;;10.53;;
5776;SDS011;2914;42.668;23.346;2023-03-03T13:23:32;12.10;;;10.10;;
5776;SDS011;2914;42.668;23.346;2023-03-03T13:26:06;9.43;;;8.53;;
5776;SDS011;2914;42.668;23.346;2023-03-03T13:28:50;13.63;;;9.07;;
5776;SDS011;2914;42.668;23.346;2023-03-03T13:31:27;10.90;;;9.00;;
5776;SDS011;2914;42.668;23.346;2023-03-03T13:33:59;11.17;;;9.37;;
5776;SDS011;2914;42.668;23.346;2023-03-03T13:36:29;9.03;;;8.10;;
5776;SDS011;2914;42.668;23.346;2023-03-03T13:39:05;8.37;;;7.67;;
5776;SDS011;2914;42.668;23.346;2023-03-03T13:41:42;11.20;;;9.40;;
5776;SDS011;2914;42.668;23.346;2023-03-03T13:44:14;9.80;;;8.50;;
5776;SDS011;2914;42.668;23.346;2023-03-03T13:46:47;11.80;;;8.33;;
5776;SDS011;2914;42.668;23.346;2023-03-03T13:49:34;11.33;;;8.70;;
5776;SDS011;2914;42.668;23.346;2023-03-03T13:52:11;11.17;;;8.97;;
5776;SDS011;2914;42.668;23.346;2023-03-03T13:54:55;9.43;;;8.53;;
5776;SDS011;2914;42.668;23.346;2023-03-03T13:57:43;11.43;;;8.53;;
5776;SDS011;2914;42.668;23.346;2023-03-03T14:00:18;9.90;;;8.40;;
5776;SDS011;2914;42.668;23.346;2023-03-03T14:02:59;10.63;;;9.27;;
5776;SDS011;2914;42.668;23.346;2023-03-03T14:05:34;12.80;;;8.50;;
5776;SDS011;2914;42.668;23.346;2023-03-03T14:08:08;11.27;;;9.43;;
5776;SDS011;2914;42.668;23.346;2023-03-03T14:10:42;10.90;;;9.27;;
5776;SDS011;2914;42.668;23.346;2023-03-03T14:13:24;11.53;;;10.20;;
5776;SDS011;2914;42.668;23.346;2023-03-03T14:15:57;10.53;;;9.43;;
5776;SDS011;2914;42.668;23.346;2023-03-03T14:18:29;10.43;;;9.30;;
5776;SDS011;2914;42.668;23.346;2023-03-03T14:21:15;13.27;;;10.23;;
5776;SDS011;2914;42.668;23.346;2023-03-03T14:23:49;12.37;;;11.07;;
5776;SDS011;2914;42.668;23.346;2023-03-03T14:26:33;11.53;;;9.93;;
5776;SDS011;2914;42.668;23.346;2023-03-03T14:29:20;10.00;;;9.00;;
5776;SDS011;2914;42.668;23.346;2023-03-03T14:31:52;12.10;;;10.33;;
5776;SDS011;2914;42.668;23.346;2023-03-03T14:34:37;13.23;;;9.90;;
5776;SDS011;2914;42.668;23.346;2023-03-03T14:37:22;14.30;;;11.10;;
5776;SDS011;2914;42.668;23.346;2023-03-03T14:40:13;11.63;;;10.10;;
5776;SDS011;2914;42.668;23.346;2023-03-03T14:42:47;15.07;;;10.83;;
5776;SDS011;2914;42.668;23.346;2023-03-03T14:45:45;13.63;;;10.50;;
5776;SDS011;2914;42.668;23.346;2023-03-03T14:48:18;12.50;;;10.40;;
5776;SDS011;2914;42.668;23.346;2023-03-03T14:51:22;15.20;;;10.33;;
5776;SDS011;2914;42.668;23.346;2023-03-03T14:53:54;10.00;;;9.00;;
5776;SDS011;2914;42.668;23.346;2023-03-03T14:56:32;10.30;;;8.60;;
5776;SDS011;2914;42.668;23.346;2023-03-03T14:59:19;12.67;;;10.17;;
5776;SDS011;2914;42.668;23.346;2023-03-03T15:01:59;12.97;;;10.23;;
5776;SDS011;2914;42.668;23.346;2023-03-03T15:04:33;11.63;;;9.33;;
5776;SDS011;2914;42.668;23.346;2023-03-03T15:07:18;11.30;;;8.90;;
5776;SDS011;2914;42.668;23.346;2023-03-03T15:09:56;11.50;;;8.70;;
5776;SDS011;2914;42.668;23.346;2023-03-03T15:12:40;15.40;;;9.47;;
5776;SDS011;2914;42.668;23.346;2023-03-03T15:15:16;9.37;;;8.43;;
5776;SDS011;2914;42.668;23.346;2023-03-03T15:18:00;10.57;;;9.07;;
5776;SDS011;2914;42.668;23.346;2023-03-03T15:20:40;9.80;;;8.20;;
5776;SDS011;2914;42.668;23.346;2023-03-03T15:23:16;8.97;;;8.07;;
5776;SDS011;2914;42.668;23.346;2023-03-03T15:28:31;15.23;;;9.37;;
5776;SDS011;2914;42.668;23.346;2023-03-03T15:31:17;8.70;;;7.90;;
5776;SDS011;2914;42.668;23.346;2023-03-03T15:33:52;12.63;;;9.37;;
5776;SDS011;2914;42.668;23.346;2023-03-03T15:36:37;15.03;;;8.70;;
5776;SDS011;2914;42.668;23.346;2023-03-03T15:39:22;10.17;;;8.70;;
5776;SDS011;2914;42.668;23.346;2023-03-03T15:41:57;11.27;;;9.07;;
5776;SDS011;2914;42.668;23.346;2023-03-03T15:44:32;9.70;;;8.80;;
5776;SDS011;2914;42.668;23.346;2023-03-03T15:49:53;9.73;;;8.60;;
5776;SDS011;2914;42.668;23.346;2023-03-03T15:52:35;10.17;;;8.53;;
5776;SDS011;2914;42.668;23.346;2023-03-03T16:02:02;10.53;;;9.40;;
5776;SDS011;2914;42.668;23.346;2023-03-03T16:04:40;11.23;;;9.37;;
5776;SDS011;2914;42.668;23.346;2023-03-03T16:07:13;11.87;;;9.37;;
5776;SDS011;2914;42.668;23.346;2023-03-03T16:09:50;13.23;;;9.67;;
5776;SDS011;2914;42.668;23.346;2023-03-03T16:12:23;11.97;;;9.83;;
5776;SDS011;2914;42.668;23.346;2023-03-03T16:15:00;11.33;;;10.13;;